Time;durP1;ratioP1;P1;durP2;ratioP2;P2;SDS_P1;SDS_P2;PMS_P1;PMS_P2;Temp;Humidity;BMP_temperature;BMP_pressure;BME280_temperature;BME280_humidity;BME280_pressure;Samples;Min_cycle;Max_cycle;Signal;HPM_P1;HPM_P2
2021/10/13 00:00:23;;;;;;;9.15;1.95;;;8.60;99.90;;;;;;5074697;28;20495;-83
2021/10/13 00:02:49;;;;;;;4.95;1.45;;;8.70;99.90;;;;;;5073855;28;20035;-82
2021/10/13 00:05:14;;;;;;;1.80;1.40;;;8.70;99.90;;;;;;5065722;28;20025;-82
2021/10/13 00:07:40;;;;;;;5.47;2.22;;;8.70;99.90;;;;;;5067896;28;20017;-84
2021/10/13 00:10:06;;;;;;;5.45;1.45;;;8.70;99.90;;;;;;5073276;28;20032;-83
2021/10/13 00:12:33;;;;;;;6.18;2.65;;;8.80;99.90;;;;;;5071195;28;20044;-81
2021/10/13 00:15:00;;;;;;;8.80;1.77;;;8.80;99.90;;;;;;5053869;28;20028;-82
2021/10/13 00:17:26;;;;;;;7.72;2.30;;;8.80;99.90;;;;;;5074073;28;20035;-83
2021/10/13 00:19:51;;;;;;;5.30;1.58;;;8.80;99.90;;;;;;5073489;28;20020;-83
2021/10/13 00:22:17;;;;;;;7.60;1.60;;;8.90;99.90;;;;;;5059723;28;20366;-83
2021/10/13 00:24:42;;;;;;;10.60;2.25;;;8.80;99.90;;;;;;5073921;28;20031;-84
2021/10/13 00:27:09;;;;;;;7.25;1.90;;;8.80;99.90;;;;;;5072850;28;20104;-84
2021/10/13 00:29:36;;;;;;;6.78;1.90;;;8.80;99.90;;;;;;5073639;28;20024;-83
2021/10/13 00:32:05;;;;;;;8.50;1.73;;;8.80;99.90;;;;;;5071439;28;20041;-83
2021/10/13 00:34:32;;;;;;;9.70;2.20;;;8.80;99.90;;;;;;5059993;28;20035;-82
2021/10/13 00:36:58;;;;;;;5.63;1.80;;;8.80;99.90;;;;;;5073104;28;20527;-82
2021/10/13 00:39:23;;;;;;;11.40;1.92;;;8.70;99.90;;;;;;5076898;28;20064;-83
2021/10/13 00:41:49;;;;;;;4.40;1.80;;;8.70;99.90;;;;;;5073179;28;20107;-83
2021/10/13 00:44:15;;;;;;;4.97;1.88;;;8.70;99.90;;;;;;5073467;28;20047;-83
2021/10/13 00:46:41;;;;;;;7.25;1.80;;;8.60;99.90;;;;;;5072157;28;20024;-83
2021/10/13 00:49:07;;;;;;;3.28;2.08;;;8.60;99.90;;;;;;5072820;28;20040;-83
2021/10/13 00:51:33;;;;;;;4.80;2.50;;;8.60;99.90;;;;;;5076551;28;20023;-83
2021/10/13 00:54:00;;;;;;;4.93;1.80;;;8.60;99.90;;;;;;5077160;28;20092;-82
2021/10/13 00:56:26;;;;;;;5.03;1.90;;;8.60;99.90;;;;;;5077246;28;20027;-83
2021/10/13 00:58:52;;;;;;;7.90;2.22;;;8.70;99.90;;;;;;5076931;28;20103;-82
2021/10/13 01:01:45;;;;;;;7.85;1.83;;;8.70;99.90;;;;;;5077064;28;20046;-82
2021/10/13 01:04:29;;;;;;;2.97;1.60;;;8.70;99.90;;;;;;5077360;28;20137;-82
2021/10/13 01:07:12;;;;;;;3.35;1.45;;;8.80;99.90;;;;;;5064158;28;20029;-82
2021/10/13 01:10:03;;;;;;;7.55;3.78;;;8.80;99.90;;;;;;5078289;28;20031;-82
2021/10/13 01:12:28;;;;;;;;;;;8.80;99.90;;;;;;5077348;28;20071;-83
2021/10/13 01:15:08;;;;;;;9.35;1.45;;;8.80;99.90;;;;;;5077267;28;19908;-83
2021/10/13 01:17:44;;;;;;;5.90;1.80;;;8.90;99.90;;;;;;5076909;28;20020;-83
2021/10/13 01:20:29;;;;;;;7.07;1.95;;;8.90;99.90;;;;;;5076831;28;20027;-84
2021/10/13 01:23:16;;;;;;;8.30;1.50;;;8.80;99.90;;;;;;5075833;28;20036;-84
2021/10/13 01:26:08;;;;;;;7.10;1.88;;;8.90;99.90;;;;;;5064235;28;20031;-82
2021/10/13 01:28:36;;;;;;;1.92;1.38;;;8.90;99.90;;;;;;5047873;28;20487;-83
2021/10/13 01:31:14;;;;;;;1.88;1.30;;;8.90;99.90;;;;;;5077342;28;20108;-83
2021/10/13 01:33:52;;;;;;;4.65;1.48;;;8.90;99.90;;;;;;5076362;28;20037;-83
2021/10/13 01:36:24;;;;;;;8.88;1.95;;;9.00;99.90;;;;;;5077088;28;20052;-83
2021/10/13 01:38:52;;;;;;;5.53;1.35;;;8.90;99.90;;;;;;5077754;28;20031;-82
2021/10/13 01:41:20;;;;;;;3.55;1.50;;;9.00;99.90;;;;;;5078040;28;20099;-82
2021/10/13 01:43:49;;;;;;;4.75;1.73;;;9.00;99.90;;;;;;5078312;28;20033;-83
2021/10/13 01:46:20;;;;;;;2.95;1.40;;;8.90;99.90;;;;;;5086229;28;20047;-81
2021/10/13 01:48:46;;;;;;;3.97;1.42;;;8.80;99.90;;;;;;5086679;28;20043;-83
2021/10/13 01:51:13;;;;;;;6.55;1.42;;;8.80;99.90;;;;;;5078369;28;20021;-82
2021/10/13 01:53:40;;;;;;;13.02;1.52;;;8.70;99.90;;;;;;5078514;28;20032;-81
2021/10/13 01:56:07;;;;;;;7.50;1.63;;;8.60;99.90;;;;;;5068313;28;20051;-82
2021/10/13 01:58:35;;;;;;;7.75;1.40;;;8.60;99.90;;;;;;5088997;28;20476;-82
2021/10/13 02:01:02;;;;;;;4.68;1.42;;;8.50;99.90;;;;;;5084256;28;20043;-82
2021/10/13 02:03:30;;;;;;;6.22;1.75;;;8.50;99.90;;;;;;5086579;28;20086;-82
2021/10/13 02:06:00;;;;;;;5.45;1.80;;;8.50;99.90;;;;;;5074546;28;20574;-83
2021/10/13 02:08:27;;;;;;;8.25;1.42;;;8.40;99.90;;;;;;5064210;28;20044;-82
2021/10/13 02:10:56;;;;;;;4.30;1.20;;;8.50;99.90;;;;;;5074537;28;20113;-83
2021/10/13 02:13:22;;;;;;;4.07;1.10;;;8.40;99.90;;;;;;5063008;28;20025;-83
2021/10/13 02:15:50;;;;;;;4.97;1.00;;;8.30;99.90;;;;;;5075263;28;20020;-84
2021/10/13 02:18:25;;;;;;;7.78;1.55;;;8.30;99.90;;;;;;5074744;28;20032;-84
2021/10/13 02:20:53;;;;;;;5.25;1.45;;;8.20;99.90;;;;;;5074953;28;20035;-81
2021/10/13 02:23:22;;;;;;;6.43;0.88;;;8.20;99.90;;;;;;5075102;28;20488;-82
2021/10/13 02:25:49;;;;;;;3.42;1.35;;;8.10;99.90;;;;;;5074802;28;20428;-83
2021/10/13 02:28:24;;;;;;;4.40;1.17;;;8.10;99.90;;;;;;5075962;28;20036;-83
2021/10/13 02:30:51;;;;;;;3.17;0.90;;;8.00;99.90;;;;;;5061815;28;20100;-83
2021/10/13 02:33:17;;;;;;;4.88;1.20;;;8.00;99.90;;;;;;5074873;28;20499;-83
2021/10/13 02:35:43;;;;;;;5.72;1.00;;;7.90;99.90;;;;;;5061458;28;20033;-82
2021/10/13 02:38:08;;;;;;;3.30;1.02;;;8.00;99.90;;;;;;5077173;28;20032;-82
2021/10/13 02:40:34;;;;;;;6.80;1.63;;;7.90;99.90;;;;;;5080636;28;20088;-83
2021/10/13 02:43:00;;;;;;;6.57;1.60;;;8.00;99.90;;;;;;5083332;28;20024;-82
2021/10/13 02:45:28;;;;;;;2.88;1.05;;;8.10;99.90;;;;;;5076402;28;20027;-82
2021/10/13 02:48:02;;;;;;;4.75;0.93;;;8.10;99.90;;;;;;5075653;28;20475;-83
2021/10/13 02:50:39;;;;;;;2.83;1.10;;;8.20;99.90;;;;;;5078151;28;20028;-82
2021/10/13 02:53:33;;;;;;;5.75;1.45;;;8.30;99.90;;;;;;5075169;28;20112;-81
2021/10/13 02:56:06;;;;;;;5.40;1.38;;;8.30;99.90;;;;;;5077512;28;20032;-84
2021/10/13 02:58:41;;;;;;;1.65;1.00;;;8.40;99.90;;;;;;5065927;28;20037;-82
2021/10/13 03:01:11;;;;;;;2.70;1.02;;;8.50;99.90;;;;;;5075091;28;20481;-82
2021/10/13 03:03:47;;;;;;;4.45;1.38;;;8.60;99.90;;;;;;5075968;28;20114;-83
2021/10/13 03:06:13;;;;;;;6.15;1.33;;;8.60;99.90;;;;;;5075200;28;20426;-82
2021/10/13 03:08:41;;;;;;;7.90;1.55;;;8.70;99.90;;;;;;5073848;28;20130;-83
2021/10/13 03:11:09;;;;;;;4.28;1.27;;;8.80;99.90;;;;;;5074730;28;20028;-81
2021/10/13 03:13:37;;;;;;;9.02;1.55;;;8.90;99.90;;;;;;5074901;28;20055;-83
2021/10/13 03:16:05;;;;;;;4.93;1.10;;;8.90;99.90;;;;;;5073684;28;20020;-81
2021/10/13 03:18:36;;;;;;;5.70;1.33;;;9.00;99.90;;;;;;5075714;28;20553;-81
2021/10/13 03:21:02;;;;;;;;;;;9.00;99.90;;;;;;5074867;28;20079;-84
2021/10/13 03:23:28;;;;;;;7.32;1.42;;;9.10;99.90;;;;;;5073898;28;19916;-83
2021/10/13 03:25:53;;;;;;;3.85;1.17;;;9.20;99.90;;;;;;5073952;28;20017;-82
2021/10/13 03:28:19;;;;;;;5.60;1.35;;;9.20;99.90;;;;;;5073909;28;20033;-82
2021/10/13 03:30:45;;;;;;;8.40;1.80;;;9.30;99.90;;;;;;5074538;28;20021;-84
2021/10/13 03:33:11;;;;;;;2.85;1.10;;;9.30;99.90;;;;;;5062891;28;20024;-83
2021/10/13 03:35:37;;;;;;;12.73;1.75;;;9.40;99.90;;;;;;5071776;28;20090;-81
2021/10/13 03:38:05;;;;;;;8.13;1.60;;;9.30;99.90;;;;;;5074685;28;20028;-83
2021/10/13 03:40:32;;;;;;;5.75;1.55;;;9.40;99.90;;;;;;5075261;28;20016;-82
2021/10/13 03:42:58;;;;;;;7.65;2.15;;;9.40;99.90;;;;;;5072972;28;20036;-84
2021/10/13 03:45:24;;;;;;;7.68;1.40;;;9.30;99.90;;;;;;5074951;28;20039;-82
2021/10/13 03:47:50;;;;;;;7.03;1.65;;;9.30;99.90;;;;;;5074585;28;20076;-81
2021/10/13 03:50:18;;;;;;;7.45;1.58;;;9.30;99.90;;;;;;5074385;28;20116;-83
2021/10/13 03:52:44;;;;;;;5.78;2.35;;;9.30;99.90;;;;;;5084953;28;20051;-82
2021/10/13 03:55:13;;;;;;;7.47;1.58;;;9.30;99.90;;;;;;5080297;28;20024;-82
2021/10/13 03:57:39;;;;;;;6.50;1.50;;;9.30;99.90;;;;;;5075265;28;20020;-82
2021/10/13 04:00:09;;;;;;;6.80;1.65;;;9.30;99.90;;;;;;5076930;28;20063;-82
2021/10/13 04:02:37;;;;;;;5.13;1.40;;;9.40;99.90;;;;;;5078827;28;20272;-80
2021/10/13 04:05:04;;;;;;;5.15;1.33;;;9.30;99.90;;;;;;5080166;28;20032;-82
2021/10/13 04:07:29;;;;;;;5.38;1.30;;;9.40;99.90;;;;;;5081165;28;20455;-81
2021/10/13 04:09:55;;;;;;;6.20;1.90;;;9.40;99.90;;;;;;5080466;28;20028;-82
2021/10/13 04:12:21;;;;;;;10.13;2.13;;;9.40;99.90;;;;;;5073809;28;20445;-82
2021/10/13 04:14:46;;;;;;;6.13;1.88;;;9.40;99.90;;;;;;5073666;28;20078;-83
2021/10/13 04:17:12;;;;;;;10.68;1.90;;;9.40;99.90;;;;;;5073317;28;20017;-82
2021/10/13 04:19:38;;;;;;;4.13;1.48;;;9.40;99.90;;;;;;5073684;28;20480;-82
2021/10/13 04:22:03;;;;;;;8.55;1.63;;;9.50;99.90;;;;;;5073189;28;20095;-83
2021/10/13 04:24:29;;;;;;;6.22;1.35;;;9.50;99.90;;;;;;5062649;28;20037;-82
2021/10/13 04:26:55;;;;;;;6.55;1.65;;;9.50;99.90;;;;;;5069664;28;20400;-82
2021/10/13 04:29:20;;;;;;;5.65;1.50;;;9.40;99.90;;;;;;5077054;28;20028;-82
2021/10/13 04:31:46;;;;;;;10.10;1.30;;;9.50;99.90;;;;;;5062482;28;20021;-83
2021/10/13 04:34:11;;;;;;;5.05;1.25;;;9.50;99.90;;;;;;5077717;28;20410;-81
2021/10/13 04:36:37;;;;;;;7.18;1.33;;;9.50;99.90;;;;;;5064669;28;20049;-83
2021/10/13 04:39:03;;;;;;;2.78;1.10;;;9.50;99.90;;;;;;5074747;28;20025;-83
2021/10/13 04:41:28;;;;;;;5.68;1.50;;;9.50;99.90;;;;;;5078009;28;20074;-82
2021/10/13 04:43:54;;;;;;;2.92;1.30;;;9.40;99.90;;;;;;5076756;28;20029;-82
2021/10/13 04:46:19;;;;;;;4.78;1.52;;;9.40;99.90;;;;;;5077184;28;20016;-81
2021/10/13 04:48:45;;;;;;;10.07;2.13;;;9.40;99.90;;;;;;5077417;28;20032;-81
2021/10/13 04:51:10;;;;;;;4.72;1.38;;;9.40;99.90;;;;;;5076846;28;20062;-82
2021/10/13 04:53:36;;;;;;;7.05;1.15;;;9.40;99.90;;;;;;5076738;28;20024;-83
2021/10/13 04:56:02;;;;;;;7.22;1.50;;;9.30;99.90;;;;;;5077004;28;20028;-83
2021/10/13 04:58:28;;;;;;;4.18;1.60;;;9.30;99.90;;;;;;5066684;28;20116;-82
2021/10/13 05:00:54;;;;;;;9.27;1.42;;;9.30;99.90;;;;;;5071812;28;20024;-82
2021/10/13 05:03:20;;;;;;;3.30;1.58;;;9.30;99.90;;;;;;5069208;28;20041;-82
2021/10/13 05:05:46;;;;;;;8.65;2.00;;;9.20;99.90;;;;;;5071374;28;20469;-81
2021/10/13 05:08:11;;;;;;;7.78;1.60;;;9.30;99.90;;;;;;5075915;28;20078;-82
2021/10/13 05:10:38;;;;;;;6.57;2.13;;;9.30;99.90;;;;;;5076707;28;20028;-83
2021/10/13 05:13:04;;;;;;;3.22;1.58;;;9.30;99.90;;;;;;5076712;28;20089;-83
2021/10/13 05:15:32;;;;;;;24.95;3.70;;;9.30;99.90;;;;;;5076450;28;20017;-80
2021/10/13 05:17:58;;;;;;;4.85;1.63;;;9.30;99.90;;;;;;5076535;28;20111;-81
2021/10/13 05:20:24;;;;;;;3.47;1.92;;;9.20;99.90;;;;;;5075916;28;20480;-81
2021/10/13 05:22:49;;;;;;;4.60;1.48;;;9.20;99.90;;;;;;5076101;28;20485;-81
2021/10/13 05:25:15;;;;;;;8.38;2.15;;;9.20;99.90;;;;;;5076680;28;20079;-80
2021/10/13 05:27:40;;;;;;;4.28;1.40;;;9.20;99.90;;;;;;5076016;28;20066;-81
2021/10/13 05:30:07;;;;;;;2.83;1.50;;;9.20;99.90;;;;;;5076531;28;20024;-81
2021/10/13 05:32:32;;;;;;;3.72;1.40;;;9.20;99.90;;;;;;5078887;28;20016;-81
2021/10/13 05:34:58;;;;;;;8.35;1.63;;;9.20;99.90;;;;;;5094109;28;20046;-81
2021/10/13 05:37:23;;;;;;;3.10;1.45;;;9.20;99.90;;;;;;5088336;28;20078;-82
2021/10/13 05:39:49;;;;;;;2.58;1.52;;;9.20;99.90;;;;;;5087245;28;20024;-81
2021/10/13 05:42:14;;;;;;;3.22;1.30;;;9.20;99.90;;;;;;5092582;28;20032;-83
2021/10/13 05:44:40;;;;;;;5.30;1.80;;;9.20;99.90;;;;;;5093242;28;20024;-83
2021/10/13 05:47:06;;;;;;;2.03;1.80;;;9.20;99.90;;;;;;5088135;28;20028;-81
2021/10/13 05:49:33;;;;;;;5.05;1.55;;;9.20;99.90;;;;;;5089212;28;20484;-82
2021/10/13 05:51:58;;;;;;;4.05;1.98;;;9.20;99.90;;;;;;5088321;28;20419;-82
2021/10/13 05:54:24;;;;;;;5.03;1.33;;;9.20;99.90;;;;;;5086444;28;20027;-84
2021/10/13 05:56:51;;;;;;;4.35;1.50;;;9.20;99.90;;;;;;5093499;28;20382;-82
2021/10/13 05:59:17;;;;;;;7.20;1.50;;;9.20;99.90;;;;;;5096554;28;20048;-83
2021/10/13 06:01:43;;;;;;;8.57;2.30;;;9.10;99.90;;;;;;5087010;28;20027;-83
2021/10/13 06:04:08;;;;;;;9.05;3.47;;;9.20;99.90;;;;;;5090334;28;20036;-84
2021/10/13 06:06:34;;;;;;;4.88;2.72;;;9.10;99.90;;;;;;5092490;28;20016;-82
2021/10/13 06:09:00;;;;;;;9.30;2.78;;;9.10;99.90;;;;;;5095470;28;20024;-82
2021/10/13 06:11:25;;;;;;;7.63;2.40;;;9.00;99.90;;;;;;5094437;28;20023;-80
2021/10/13 06:13:52;;;;;;;12.65;2.80;;;9.00;99.90;;;;;;5087013;28;20012;-82
2021/10/13 06:16:21;;;;;;;13.30;3.03;;;9.00;99.90;;;;;;5089340;28;20024;-82
2021/10/13 06:18:50;;;;;;;4.47;2.45;;;9.10;99.90;;;;;;5093689;28;20465;-83
2021/10/13 06:21:25;;;;;;;6.70;1.80;;;9.10;99.90;;;;;;5081254;28;20106;-83
2021/10/13 06:23:51;;;;;;;3.58;1.50;;;9.10;99.90;;;;;;5082214;28;20025;-83
2021/10/13 06:26:16;;;;;;;4.40;1.20;;;9.20;99.90;;;;;;5086576;28;20040;-81
2021/10/13 06:28:45;;;;;;;5.20;1.75;;;9.20;99.90;;;;;;5087982;28;20020;-79
2021/10/13 06:31:10;;;;;;;10.35;1.67;;;9.20;99.90;;;;;;5082913;28;20483;-80
2021/10/13 06:33:36;;;;;;;4.18;1.30;;;9.30;99.90;;;;;;5088528;28;20020;-81
2021/10/13 06:36:05;;;;;;;3.78;1.35;;;9.30;99.90;;;;;;5087904;28;20071;-80
2021/10/13 06:38:30;;;;;;;4.03;1.63;;;9.40;99.90;;;;;;5088475;28;20024;-80
2021/10/13 06:40:56;;;;;;;7.30;1.63;;;9.40;99.90;;;;;;5087646;28;20010;-81
2021/10/13 06:43:21;;;;;;;3.35;1.40;;;9.40;99.90;;;;;;5087380;28;20516;-79
2021/10/13 06:45:47;;;;;;;12.57;2.03;;;9.50;99.90;;;;;;5081562;28;20481;-79
2021/10/13 06:48:13;;;;;;;5.63;1.40;;;9.60;99.90;;;;;;5084439;28;20028;-80
2021/10/13 06:50:38;;;;;;;3.33;1.23;;;9.70;99.90;;;;;;5073231;28;20095;-81
2021/10/13 06:53:04;;;;;;;6.18;1.75;;;9.70;99.90;;;;;;5072368;28;20492;-78
2021/10/13 06:55:30;;;;;;;5.85;1.45;;;9.70;99.90;;;;;;5088436;28;20384;-80
2021/10/13 06:57:56;;;;;;;4.25;1.63;;;9.80;99.90;;;;;;5088346;28;20031;-78
2021/10/13 07:00:21;;;;;;;4.20;1.30;;;9.80;99.90;;;;;;5090274;28;20729;-77
2021/10/13 07:02:47;;;;;;;6.22;1.40;;;9.90;99.90;;;;;;5075357;28;20372;-77
2021/10/13 07:05:17;;;;;;;7.30;3.17;;;10.00;99.90;;;;;;5073775;28;20032;-80
2021/10/13 07:07:44;;;;;;;6.40;1.98;;;10.00;99.90;;;;;;5072608;28;20039;-79
2021/10/13 07:10:11;;;;;;;4.85;1.65;;;10.00;99.90;;;;;;5074016;28;20484;-79
2021/10/13 07:12:36;;;;;;;5.22;1.60;;;10.00;99.90;;;;;;5075290;28;20051;-80
2021/10/13 07:15:04;;;;;;;4.93;1.95;;;10.00;99.90;;;;;;5078064;28;20716;-81
2021/10/13 07:17:29;;;;;;;7.22;1.85;;;10.10;99.90;;;;;;5073763;28;20359;-78
2021/10/13 07:19:55;;;;;;;6.95;2.17;;;10.10;99.90;;;;;;5072198;28;20476;-79
2021/10/13 07:22:21;;;;;;;7.72;1.65;;;10.20;99.90;;;;;;5071570;28;20036;-80
2021/10/13 07:24:47;;;;;;;3.15;1.30;;;10.30;99.90;;;;;;5071888;28;20070;-78
2021/10/13 07:27:13;;;;;;;1.58;1.35;;;10.40;99.90;;;;;;5070332;28;20036;-80
2021/10/13 07:29:44;;;;;;;4.35;1.55;;;10.50;99.90;;;;;;5071961;28;20029;-81
2021/10/13 07:32:10;;;;;;;3.67;2.13;;;10.50;99.90;;;;;;5071507;28;20047;-76
2021/10/13 07:34:36;;;;;;;7.57;1.75;;;10.60;99.90;;;;;;5070512;28;20472;-75
2021/10/13 07:37:03;;;;;;;9.95;2.42;;;10.70;99.90;;;;;;5072459;28;20032;-76
2021/10/13 07:39:29;;;;;;;7.05;2.17;;;10.80;99.90;;;;;;5072808;28;20103;-77
2021/10/13 07:41:55;;;;;;;5.50;1.90;;;10.80;99.90;;;;;;5071923;28;20021;-73
2021/10/13 07:44:21;;;;;;;6.80;2.20;;;10.90;99.90;;;;;;5072851;28;20547;-79
2021/10/13 07:46:47;;;;;;;5.45;1.90;;;10.90;99.90;;;;;;5073079;28;20380;-77
2021/10/13 07:49:12;;;;;;;5.97;2.10;;;10.90;99.90;;;;;;5075970;28;20028;-77
2021/10/13 07:51:38;;;;;;;2.35;1.67;;;10.90;99.90;;;;;;5083960;28;20024;-78
2021/10/13 07:54:04;;;;;;;9.15;2.33;;;10.90;99.90;;;;;;5086666;28;20028;-78
2021/10/13 07:56:30;;;;;;;6.07;2.42;;;10.90;99.90;;;;;;5082369;28;20020;-78
2021/10/13 07:58:55;;;;;;;7.13;2.45;;;11.00;99.90;;;;;;5087253;28;20045;-78
2021/10/13 08:01:21;;;;;;;5.45;2.40;;;11.00;99.90;;;;;;5074108;28;20381;-77
2021/10/13 08:03:47;;;;;;;2.38;1.50;;;11.10;99.90;;;;;;5083625;28;20375;-78
2021/10/13 08:06:13;;;;;;;8.43;2.25;;;11.20;99.90;;;;;;5086907;28;20032;-77
2021/10/13 08:08:39;;;;;;;4.32;1.50;;;11.20;99.90;;;;;;5091726;28;20027;-79
2021/10/13 08:11:05;;;;;;;12.40;2.55;;;11.30;99.90;;;;;;5090928;28;20027;-78
2021/10/13 08:13:31;;;;;;;9.52;2.67;;;11.30;99.90;;;;;;5086364;28;20024;-79
2021/10/13 08:15:56;;;;;;;3.97;1.67;;;11.30;99.90;;;;;;5072324;28;20024;-79
2021/10/13 08:18:22;;;;;;;8.88;1.73;;;11.40;99.90;;;;;;5071526;28;20028;-77
2021/10/13 08:20:47;;;;;;;3.00;1.83;;;11.40;99.90;;;;;;5073120;28;20479;-79
2021/10/13 08:23:13;;;;;;;9.10;1.75;;;11.50;99.90;;;;;;5072132;28;20086;-78
2021/10/13 08:25:38;;;;;;;4.68;1.70;;;11.50;99.90;;;;;;5058398;28;20099;-78
2021/10/13 08:28:04;;;;;;;4.32;1.77;;;11.60;99.90;;;;;;5073554;28;20520;-78
2021/10/13 08:30:30;;;;;;;7.28;1.85;;;11.60;99.90;;;;;;5072111;28;20032;-77
2021/10/13 08:32:55;;;;;;;8.32;1.30;;;11.70;99.90;;;;;;5072404;28;20024;-78
2021/10/13 08:35:21;;;;;;;3.78;1.75;;;11.70;99.90;;;;;;5072558;28;20051;-79
2021/10/13 08:37:52;;;;;;;7.53;1.90;;;11.80;99.90;;;;;;5071449;28;20477;-79
2021/10/13 08:40:18;;;;;;;5.47;1.73;;;11.80;99.90;;;;;;5072613;28;20061;-79
2021/10/13 08:42:55;;;;;;;6.03;1.80;;;11.90;99.90;;;;;;5072491;28;20125;-77
2021/10/13 08:45:23;;;;;;;11.30;1.83;;;12.00;99.90;;;;;;5071945;28;20032;-77
2021/10/13 08:47:48;;;;;;;5.20;1.83;;;12.10;99.90;;;;;;5072242;28;20028;-77
2021/10/13 08:50:14;;;;;;;6.20;2.28;;;12.10;99.90;;;;;;5072233;28;20025;-77
2021/10/13 08:52:40;;;;;;;7.75;2.00;;;12.10;99.90;;;;;;5071532;28;20114;-77
2021/10/13 08:55:07;;;;;;;6.05;2.10;;;12.10;99.90;;;;;;5073857;28;20020;-78
2021/10/13 08:57:33;;;;;;;5.18;1.60;;;12.00;99.90;;;;;;5077536;28;20111;-77
2021/10/13 08:59:58;;;;;;;6.40;1.77;;;12.10;99.90;;;;;;5073874;28;20047;-78
2021/10/13 09:02:41;;;;;;;4.00;1.33;;;12.10;99.90;;;;;;5072805;28;20031;-77
2021/10/13 09:05:15;;;;;;;10.65;1.48;;;12.10;99.90;;;;;;5072756;28;20078;-78
2021/10/13 09:07:49;;;;;;;2.22;0.88;;;12.00;99.90;;;;;;5071585;28;20025;-78
2021/10/13 09:10:35;;;;;;;6.28;0.77;;;12.00;99.90;;;;;;5072578;28;20162;-77
2021/10/13 09:13:13;;;;;;;4.80;0.65;;;11.90;99.90;;;;;;5072121;28;20044;-77
2021/10/13 09:15:39;;;;;;;3.30;0.70;;;11.90;99.90;;;;;;5076174;28;20475;-78
2021/10/13 09:18:06;;;;;;;4.20;0.55;;;11.90;99.90;;;;;;5076055;28;20036;-78
2021/10/13 09:20:38;;;;;;;3.50;0.73;;;12.00;99.90;;;;;;5075105;28;20056;-78
2021/10/13 09:23:15;;;;;;;2.90;0.73;;;12.10;99.90;;;;;;5075598;28;20043;-77
2021/10/13 09:25:42;;;;;;;3.63;0.77;;;12.20;99.90;;;;;;5069611;28;20055;-78
2021/10/13 09:28:09;;;;;;;3.20;0.82;;;12.50;99.90;;;;;;5065474;28;20064;-77
2021/10/13 09:30:39;;;;;;;3.00;0.73;;;12.30;99.90;;;;;;5065232;28;20028;-77
2021/10/13 09:33:22;;;;;;;3.45;0.88;;;12.30;99.90;;;;;;5075045;28;20036;-77
2021/10/13 09:35:54;;;;;;;2.22;0.68;;;12.30;99.90;;;;;;5074299;28;20131;-79
2021/10/13 09:38:25;;;;;;;1.30;0.60;;;12.30;99.90;;;;;;5074660;28;20074;-77
2021/10/13 09:40:57;;;;;;;1.50;0.50;;;12.30;99.90;;;;;;5073787;28;20012;-77
2021/10/13 09:43:34;;;;;;;3.13;0.60;;;12.30;99.90;;;;;;5078080;28;20091;-77
2021/10/13 09:46:12;;;;;;;2.70;0.80;;;12.40;99.90;;;;;;5076729;28;20040;-77
2021/10/13 09:48:41;;;;;;;2.60;0.88;;;12.50;99.90;;;;;;5082312;28;20024;-78
2021/10/13 09:51:21;;;;;;;2.40;0.70;;;12.50;99.90;;;;;;5073083;28;20499;-78
2021/10/13 09:53:50;;;;;;;16.10;2.90;;;12.60;99.90;;;;;;5073109;28;20024;-78
2021/10/13 09:56:35;;;;;;;4.53;0.77;;;12.70;99.90;;;;;;5071896;28;20036;-77
2021/10/13 09:59:15;;;;;;;4.55;0.80;;;12.80;99.90;;;;;;5072908;28;20040;-79
2021/10/13 10:01:57;;;;;;;6.45;0.68;;;12.90;99.90;;;;;;5073271;28;20536;-78
2021/10/13 10:04:26;;;;;;;3.60;0.80;;;13.00;99.90;;;;;;5074486;28;20566;-76
2021/10/13 10:06:58;;;;;;;1.00;0.45;;;13.10;99.90;;;;;;5075288;28;20028;-77
2021/10/13 10:09:26;;;;;;;5.55;0.82;;;13.10;99.90;;;;;;5073751;28;20024;-78
2021/10/13 10:12:06;;;;;;;1.13;0.52;;;13.20;99.90;;;;;;5079342;28;20013;-77
2021/10/13 10:14:32;;;;;;;;;;;13.20;99.90;;;;;;5072164;28;20028;-78
2021/10/13 10:16:59;;;;;;;3.15;0.70;;;13.30;99.90;;;;;;5072204;28;19904;-76
2021/10/13 10:19:30;;;;;;;10.70;1.27;;;13.30;99.90;;;;;;5075059;28;20163;-77
2021/10/13 10:22:10;;;;;;;3.83;0.85;;;13.40;99.90;;;;;;5073850;28;20033;-76
2021/10/13 10:24:37;;;;;;;4.38;0.82;;;13.40;99.90;;;;;;5071378;28;20029;-77
2021/10/13 10:27:23;;;;;;;3.20;0.77;;;13.40;99.90;;;;;;5072331;28;20074;-79
2021/10/13 10:30:07;;;;;;;1.38;0.70;;;13.40;99.90;;;;;;5072816;28;20470;-76
2021/10/13 10:33:03;;;;;;;5.63;1.10;;;13.50;99.90;;;;;;5073591;28;20024;-78
2021/10/13 10:35:39;;;;;;;6.03;0.98;;;13.50;99.90;;;;;;5071561;28;20045;-76
2021/10/13 10:38:05;;;;;;;3.05;1.08;;;13.60;99.90;;;;;;5071524;28;20016;-77
2021/10/13 10:40:37;;;;;;;6.05;0.80;;;13.80;99.90;;;;;;5072483;28;20024;-76
2021/10/13 10:43:24;;;;;;;7.60;0.90;;;14.00;99.90;;;;;;5073766;28;20036;-77
2021/10/13 10:45:59;;;;;;;3.47;0.75;;;14.20;99.90;;;;;;5079884;28;20016;-76
2021/10/13 10:48:46;;;;;;;2.28;0.90;;;14.30;99.90;;;;;;5076999;28;20029;-77
2021/10/13 10:51:16;;;;;;;2.92;1.13;;;14.30;99.90;;;;;;5078045;28;20043;-78
2021/10/13 10:53:44;;;;;;;3.30;0.67;;;14.20;99.90;;;;;;5083330;28;20780;-77
2021/10/13 10:56:29;;;;;;;4.60;1.00;;;14.20;99.90;;;;;;5079503;28;20400;-77
2021/10/13 10:59:08;;;;;;;3.85;0.95;;;14.20;99.90;;;;;;5079442;28;20089;-76
2021/10/13 11:01:37;;;;;;;3.67;0.98;;;14.10;99.90;;;;;;5078628;28;20476;-77
2021/10/13 11:04:10;;;;;;;4.22;0.60;;;14.10;99.90;;;;;;5070745;28;20040;-77
2021/10/13 11:06:37;;;;;;;3.17;0.77;;;14.00;99.90;;;;;;5071469;28;20020;-76
2021/10/13 11:09:08;;;;;;;2.33;0.60;;;14.00;99.90;;;;;;5071955;28;20392;-75
2021/10/13 11:11:40;;;;;;;5.78;0.98;;;14.00;99.90;;;;;;5069244;28;20468;-77
2021/10/13 11:14:09;;;;;;;2.83;1.50;;;14.00;99.90;;;;;;5070931;28;20055;-77
2021/10/13 11:16:38;;;;;;;2.70;0.70;;;14.00;99.90;;;;;;5071703;28;20530;-76
2021/10/13 11:19:29;;;;;;;12.63;1.58;;;13.90;99.90;;;;;;5071966;28;20037;-76
2021/10/13 11:22:00;;;;;;;3.97;0.80;;;13.80;99.90;;;;;;5071587;28;20025;-76
2021/10/13 11:24:26;;;;;;;2.78;1.05;;;13.80;99.90;;;;;;5072589;28;20044;-78
2021/10/13 11:26:51;;;;;;;4.47;1.48;;;13.80;99.90;;;;;;5070777;28;20020;-76
2021/10/13 11:29:22;;;;;;;3.00;0.90;;;13.80;99.90;;;;;;5071664;28;20024;-76
2021/10/13 11:31:48;;;;;;;1.15;0.75;;;13.80;99.90;;;;;;5068646;28;20031;-78
2021/10/13 11:34:17;;;;;;;3.25;0.88;;;13.80;99.90;;;;;;5070864;28;20056;-77
2021/10/13 11:36:55;;;;;;;3.00;0.90;;;13.80;99.90;;;;;;5071332;28;20124;-75
2021/10/13 11:39:33;;;;;;;1.05;0.52;;;13.90;99.90;;;;;;5069577;28;20491;-78
2021/10/13 11:42:00;;;;;;;9.30;0.80;;;13.90;99.90;;;;;;5070577;28;20499;-76
2021/10/13 11:44:28;;;;;;;5.25;0.88;;;13.90;99.90;;;;;;5071169;28;20114;-77
2021/10/13 11:47:05;;;;;;;5.57;2.45;;;14.00;99.90;;;;;;5071398;28;20028;-77
2021/10/13 11:49:32;;;;;;;5.43;0.85;;;14.10;99.90;;;;;;5068863;28;20031;-76
2021/10/13 11:52:14;;;;;;;2.28;0.80;;;14.30;99.90;;;;;;5070477;28;20106;-77
2021/10/13 11:54:41;;;;;;;5.43;1.08;;;14.50;99.90;;;;;;5072541;28;20020;-75
2021/10/13 11:57:06;;;;;;;5.63;0.93;;;14.70;99.90;;;;;;5080709;28;20028;-75
2021/10/13 11:59:33;;;;;;;2.67;0.80;;;14.80;99.90;;;;;;5077926;28;20103;-76
2021/10/13 12:02:11;;;;;;;4.80;1.00;;;15.00;99.90;;;;;;5081584;28;20107;-75
2021/10/13 12:04:45;;;;;;;2.17;0.93;;;15.00;99.90;;;;;;5079729;28;20044;-76
2021/10/13 12:07:22;;;;;;;3.13;0.60;;;15.00;99.90;;;;;;5080678;28;20089;-75
2021/10/13 12:09:59;;;;;;;7.93;1.13;;;14.90;99.90;;;;;;5079920;28;20074;-76
2021/10/13 12:12:26;;;;;;;3.17;0.82;;;14.80;99.90;;;;;;5077500;28;20033;-75
2021/10/13 12:14:53;;;;;;;2.53;0.90;;;14.60;99.90;;;;;;5080078;28;20025;-75
2021/10/13 12:17:24;;;;;;;3.03;0.77;;;14.40;99.90;;;;;;5070235;28;20099;-76
2021/10/13 12:19:49;;;;;;;2.03;0.77;;;14.30;99.90;;;;;;5067990;28;20024;-77
2021/10/13 12:22:15;;;;;;;7.40;1.00;;;14.30;99.90;;;;;;5078960;28;20039;-79
2021/10/13 12:24:41;;;;;;;2.75;0.75;;;14.30;99.90;;;;;;5087374;28;20040;-77
2021/10/13 12:27:09;;;;;;;2.38;0.73;;;14.10;99.90;;;;;;5072904;28;20479;-79
2021/10/13 12:29:41;;;;;;;4.72;0.80;;;14.20;99.90;;;;;;5072771;28;20104;-78
2021/10/13 12:32:18;;;;;;;2.45;0.98;;;14.20;99.90;;;;;;5072827;28;20025;-78
2021/10/13 12:34:44;;;;;;;1.35;0.75;;;14.10;99.90;;;;;;5063565;28;20081;-77
2021/10/13 12:37:10;;;;;;;5.07;0.82;;;14.20;99.90;;;;;;5070667;28;20060;-78
2021/10/13 12:39:35;;;;;;;3.50;0.77;;;14.20;99.90;;;;;;5070559;28;20044;-78
2021/10/13 12:42:09;;;;;;;4.95;1.15;;;14.20;99.90;;;;;;5071062;28;20035;-77
2021/10/13 12:44:36;;;;;;;5.57;0.80;;;14.20;99.90;;;;;;5075000;28;20047;-78
2021/10/13 12:47:07;;;;;;;3.67;0.73;;;14.20;99.90;;;;;;5089109;28;20024;-77
2021/10/13 12:49:38;;;;;;;3.13;0.70;;;14.30;99.90;;;;;;5073773;28;20387;-76
2021/10/13 12:52:05;;;;;;;3.75;0.88;;;14.30;99.90;;;;;;5075087;28;20039;-78
2021/10/13 12:54:34;;;;;;;6.03;0.85;;;14.30;99.90;;;;;;5076430;28;20012;-77
2021/10/13 12:57:00;;;;;;;2.60;0.70;;;14.40;99.90;;;;;;5076904;28;20380;-79
2021/10/13 12:59:26;;;;;;;3.50;1.48;;;14.50;99.90;;;;;;5077743;28;20029;-79
2021/10/13 13:01:52;;;;;;;4.50;0.70;;;14.60;99.90;;;;;;5076101;28;20448;-77